Burley Municipal Airport Burley US
ICAO: KBYI
IATA: BYI
Category: Medium
Scheduled Services: No

Elevation: 4150 ft
TransAlt. 18000 ft.

Airport Communications:
TWIN FALLS APP/DEP:126.7
ASOS:135.575
SALT LAKE CITY CNTR:118.05
CTAF:122.9
BOISE RDO:122.05

KBYI Zoom In..

Runways:

(A) RW 02 length 4092 ft width 80 ft
---- / hdg 22

(B) RW 06 length 4072 ft width 75 ft
---- / hdg 64

(C) RW 20 length 4092 ft width 80 ft
---- / hdg 202

(D) RW 24 length 4072 ft width 75 ft
---- / hdg 244

Location; KBYI
Day. 24 / Time. 01.53 Zulu
* Altimeter: 30.22
* Temperature: 02° c. 35.6°f.
* Wind from: 120° Speed 03 kn.
Dewpoint: -03° c.
Visibility: 10 Statute Miles.
Clouds: Clear (automated report).

KBYI 240153Z AUTO 12003KT 10SM CLR 02/M03 A3022 RMK AO2 SLPNO T00171033


Wind From 120°
Speed 03 kn.

YouTube Music Video
 
jpsmedia.com for Web Design  worldairports.se 2018   terms of use